Time;durP1;ratioP1;P1;durP2;ratioP2;P2;SDS_P1;SDS_P2;PMS_P1;PMS_P2;Temp;Humidity;BMP_temperature;BMP_pressure;BME280_temperature;BME280_humidity;BME280_pressure;Samples;Min_cycle;Max_cycle;Signal;HPM_P1;HPM_P2
2021/09/01 00:02:14;;;;;;;5.93;4.50;;;15.70;99.90;;;;;;5108361;28;20233;-71
2021/09/01 00:04:42;;;;;;;6.80;4.60;;;15.70;99.90;;;;;;5108605;28;20380;-72
2021/09/01 00:07:09;;;;;;;7.37;4.80;;;15.80;99.90;;;;;;5108492;28;20206;-71
2021/09/01 00:09:37;;;;;;;5.13;4.63;;;15.70;99.90;;;;;;5109651;28;20408;-72
2021/09/01 00:12:04;;;;;;;5.83;4.80;;;15.70;99.90;;;;;;5112344;28;20723;-72
2021/09/01 00:14:31;;;;;;;5.83;5.10;;;15.80;99.90;;;;;;5112417;28;20210;-72
2021/09/01 00:16:58;;;;;;;5.03;4.63;;;15.80;99.90;;;;;;5112520;28;20210;-72
2021/09/01 00:19:24;;;;;;;8.57;4.67;;;15.80;99.90;;;;;;5112515;28;20210;-72
2021/09/01 00:21:52;;;;;;;5.30;4.90;;;15.80;99.90;;;;;;5112342;28;20252;-72
2021/09/01 00:24:19;;;;;;;5.40;5.00;;;15.70;99.90;;;;;;5112026;28;20664;-72
2021/09/01 00:26:46;;;;;;;7.47;4.87;;;15.60;99.90;;;;;;5112309;28;20199;-72
2021/09/01 00:29:12;;;;;;;5.83;4.80;;;15.70;99.90;;;;;;5112264;28;20237;-72
2021/09/01 00:31:39;;;;;;;6.27;5.10;;;15.70;99.90;;;;;;5112407;28;20274;-72
2021/09/01 00:34:06;;;;;;;5.73;5.23;;;15.70;99.90;;;;;;5112293;28;20548;-72
2021/09/01 00:36:33;;;;;;;5.13;4.73;;;15.70;99.90;;;;;;5111884;28;20252;-72
2021/09/01 00:39:01;;;;;;;5.30;4.90;;;15.70;99.90;;;;;;5111952;28;20239;-72
2021/09/01 00:41:29;;;;;;;6.13;5.53;;;15.60;99.90;;;;;;5111930;28;20210;-72
2021/09/01 00:43:57;;;;;;;7.17;5.40;;;15.70;99.90;;;;;;5111793;28;20198;-71
2021/09/01 00:46:24;;;;;;;6.20;5.03;;;15.60;99.90;;;;;;5111794;28;20476;-72
2021/09/01 00:48:52;;;;;;;6.60;5.43;;;15.60;99.90;;;;;;5111534;28;20229;-72
2021/09/01 00:51:19;;;;;;;5.97;5.47;;;15.60;99.90;;;;;;5111309;28;21103;-72
2021/09/01 00:53:47;;;;;;;6.40;5.80;;;15.60;99.90;;;;;;5111151;28;20924;-72
2021/09/01 00:56:17;;;;;;;6.07;5.57;;;15.60;99.90;;;;;;5111509;28;20225;-72
2021/09/01 00:58:46;;;;;;;6.77;6.17;;;15.60;99.90;;;;;;5111911;28;20226;-72
2021/09/01 01:01:16;;;;;;;6.73;6.13;;;15.60;99.90;;;;;;5111848;28;20225;-72
2021/09/01 01:03:47;;;;;;;6.57;5.93;;;15.60;99.90;;;;;;5111756;28;20210;-72
2021/09/01 01:06:14;;;;;;;6.00;5.47;;;15.60;99.90;;;;;;5111639;28;20278;-72
2021/09/01 01:08:41;;;;;;;5.73;5.27;;;15.60;99.90;;;;;;5111551;28;20245;-72
2021/09/01 01:11:12;;;;;;;7.33;5.93;;;15.60;99.90;;;;;;5111453;28;20202;-72
2021/09/01 01:13:40;;;;;;;8.53;6.03;;;15.50;99.90;;;;;;5111542;28;20204;-70
2021/09/01 01:16:07;;;;;;;6.27;5.77;;;15.50;99.90;;;;;;5111216;28;20210;-70
2021/09/01 01:18:34;;;;;;;6.97;5.90;;;15.50;99.90;;;;;;5111014;28;20202;-72
2021/09/01 01:21:01;;;;;;;6.57;5.97;;;15.40;99.90;;;;;;5109828;28;20210;-72
2021/09/01 01:23:27;;;;;;;6.87;6.23;;;15.40;99.90;;;;;;5110972;28;20210;-72
2021/09/01 01:25:55;;;;;;;7.03;6.33;;;15.40;99.90;;;;;;5111366;28;20213;-72
2021/09/01 01:28:22;;;;;;;8.43;6.70;;;15.40;99.90;;;;;;5110661;28;20970;-72
2021/09/01 01:30:48;;;;;;;8.17;5.97;;;15.40;99.90;;;;;;5110922;28;20206;-72
2021/09/01 01:33:15;;;;;;;9.33;6.70;;;15.40;99.90;;;;;;5111129;28;20209;-72
2021/09/01 01:35:45;;;;;;;7.10;6.40;;;15.40;99.90;;;;;;5110983;28;20217;-72
2021/09/01 01:38:13;;;;;;;8.67;6.47;;;15.40;99.90;;;;;;5111272;28;20572;-72
2021/09/01 01:40:41;;;;;;;7.07;6.40;;;15.40;99.90;;;;;;5110999;28;20205;-74
2021/09/01 01:43:09;;;;;;;7.53;6.83;;;15.40;99.90;;;;;;5110854;28;20198;-72
2021/09/01 01:45:38;;;;;;;6.80;6.17;;;15.40;99.90;;;;;;5110862;28;20946;-72
2021/09/01 01:48:06;;;;;;;8.47;7.53;;;15.40;99.90;;;;;;5110567;28;20692;-72
2021/09/01 01:50:33;;;;;;;7.87;7.03;;;15.40;99.90;;;;;;5110576;28;20213;-72
2021/09/01 01:53:00;;;;;;;7.30;6.60;;;15.40;99.90;;;;;;5110750;28;20202;-73
2021/09/01 01:55:27;;;;;;;6.93;6.33;;;15.40;99.90;;;;;;5110127;28;20286;-72
2021/09/01 01:58:14;;;;;;;7.07;6.17;;;15.40;99.90;;;;;;5115105;27;20230;-72
2021/09/01 02:00:40;;;;;;;10.27;7.10;;;15.50;99.90;;;;;;5130376;27;20700;-72
2021/09/01 02:03:07;;;;;;;7.70;6.90;;;15.40;99.90;;;;;;5131063;27;20290;-74
2021/09/01 02:05:34;;;;;;;7.57;6.87;;;15.40;99.90;;;;;;5130775;27;20686;-74
2021/09/01 02:08:00;;;;;;;8.10;6.57;;;15.40;99.90;;;;;;5130687;27;20277;-74
2021/09/01 02:10:27;;;;;;;7.43;6.73;;;15.40;99.90;;;;;;5130592;27;20277;-71
2021/09/01 02:12:54;;;;;;;7.63;6.93;;;15.40;99.90;;;;;;5130938;27;20647;-71
2021/09/01 02:15:22;;;;;;;8.23;7.13;;;15.40;99.90;;;;;;5131110;27;20201;-71
2021/09/01 02:17:49;;;;;;;7.33;6.53;;;15.40;99.90;;;;;;5126555;27;20249;-71
2021/09/01 02:20:16;;;;;;;7.53;6.90;;;15.40;99.90;;;;;;5109280;28;20202;-70
2021/09/01 02:22:44;;;;;;;8.17;7.37;;;15.10;99.90;;;;;;5109509;28;20197;-76
2021/09/01 02:25:12;;;;;;;7.53;6.90;;;15.00;99.90;;;;;;5109423;28;20201;-72
2021/09/01 02:27:39;;;;;;;7.50;6.90;;;15.00;99.90;;;;;;5109140;28;20247;-73
2021/09/01 02:30:07;;;;;;;7.60;6.53;;;15.10;99.90;;;;;;5104987;28;20202;-73
2021/09/01 02:32:36;;;;;;;8.27;7.13;;;15.10;99.90;;;;;;5105474;28;20266;-72
2021/09/01 02:35:03;;;;;;;7.60;6.87;;;15.10;99.90;;;;;;5105551;27;20209;-72
2021/09/01 02:37:30;;;;;;;7.13;6.43;;;15.10;99.90;;;;;;5105940;28;20198;-72
2021/09/01 02:39:57;;;;;;;7.90;7.03;;;15.10;99.90;;;;;;5105761;28;20202;-72
2021/09/01 02:42:24;;;;;;;7.47;6.80;;;15.20;99.90;;;;;;5104856;28;20696;-72
2021/09/01 02:44:50;;;;;;;8.57;7.10;;;15.20;99.90;;;;;;5104417;28;20206;-72
2021/09/01 02:47:17;;;;;;;8.53;7.73;;;15.20;99.90;;;;;;5105559;28;20667;-72
2021/09/01 02:49:45;;;;;;;7.30;6.70;;;15.20;99.90;;;;;;5105708;28;20702;-72
2021/09/01 02:52:11;;;;;;;7.23;6.27;;;15.20;99.90;;;;;;5105865;28;20230;-73
2021/09/01 02:54:38;;;;;;;7.47;6.87;;;15.20;99.90;;;;;;5104751;28;20731;-72
2021/09/01 02:57:05;;;;;;;7.67;6.90;;;15.20;99.90;;;;;;5105642;28;20693;-72
2021/09/01 02:59:31;;;;;;;7.50;6.70;;;15.10;99.90;;;;;;5105383;28;20206;-73
2021/09/01 03:01:58;;;;;;;6.93;6.23;;;15.10;99.90;;;;;;5105565;28;20283;-73
2021/09/01 03:04:25;;;;;;;7.03;6.23;;;15.10;99.90;;;;;;5105314;28;20233;-72
2021/09/01 03:06:52;;;;;;;7.10;6.50;;;15.10;99.90;;;;;;5105297;28;20217;-72
2021/09/01 03:09:19;;;;;;;8.10;6.87;;;15.00;99.90;;;;;;5105264;28;20274;-72
2021/09/01 03:11:46;;;;;;;9.23;7.20;;;15.00;99.90;;;;;;5104693;28;20268;-73
2021/09/01 03:14:12;;;;;;;9.83;6.53;;;14.90;99.90;;;;;;5108708;28;20247;-72
2021/09/01 03:16:39;;;;;;;8.03;6.53;;;15.00;99.90;;;;;;5107917;28;20541;-72
2021/09/01 03:19:05;;;;;;;8.03;7.20;;;15.00;99.90;;;;;;5106732;28;20228;-73
2021/09/01 03:21:32;;;;;;;7.60;6.87;;;14.70;99.90;;;;;;5107238;28;20202;-73
2021/09/01 03:24:00;;;;;;;6.97;6.47;;;14.80;99.90;;;;;;5107553;28;20202;-72
2021/09/01 03:26:28;;;;;;;8.83;6.30;;;14.80;99.90;;;;;;5107494;28;20210;-72
2021/09/01 03:28:56;;;;;;;7.10;6.50;;;14.70;99.90;;;;;;5107310;28;20236;-72
2021/09/01 03:31:23;;;;;;;7.97;6.70;;;14.60;99.90;;;;;;5107380;28;20205;-72
2021/09/01 03:33:49;;;;;;;7.50;6.80;;;14.70;99.90;;;;;;5108440;28;20206;-72
2021/09/01 03:36:16;;;;;;;7.30;6.60;;;14.70;99.90;;;;;;5108314;28;20641;-73
2021/09/01 03:38:44;;;;;;;7.20;6.53;;;14.70;99.90;;;;;;5108765;28;20214;-72
2021/09/01 03:41:12;;;;;;;6.83;6.17;;;14.70;99.90;;;;;;5108863;28;20202;-72
2021/09/01 03:43:38;;;;;;;7.97;6.70;;;14.80;99.90;;;;;;5108538;28;20267;-72
2021/09/01 03:46:05;;;;;;;6.97;6.30;;;14.80;99.90;;;;;;5112391;28;20213;-72
2021/09/01 03:48:31;;;;;;;7.43;6.70;;;14.80;99.90;;;;;;5112339;28;20643;-72
2021/09/01 03:50:58;;;;;;;6.97;6.37;;;14.80;99.90;;;;;;5113000;28;20228;-72
2021/09/01 03:53:25;;;;;;;6.73;6.13;;;14.80;99.90;;;;;;5112850;28;20270;-72
2021/09/01 03:55:52;;;;;;;6.73;6.17;;;14.80;99.90;;;;;;5112756;28;20279;-72
2021/09/01 03:58:20;;;;;;;6.97;6.37;;;14.80;99.90;;;;;;5112402;28;20278;-72
2021/09/01 04:00:46;;;;;;;7.50;6.23;;;14.90;99.90;;;;;;5112435;28;20238;-72
2021/09/01 04:03:13;;;;;;;7.03;6.43;;;14.80;99.90;;;;;;5112865;28;20618;-73
2021/09/01 04:05:40;;;;;;;7.13;6.43;;;14.80;99.90;;;;;;5112729;28;20213;-72
2021/09/01 04:08:07;;;;;;;10.93;6.43;;;14.80;99.90;;;;;;5112246;28;20672;-72
2021/09/01 04:10:34;;;;;;;6.87;6.30;;;14.80;99.90;;;;;;5112048;28;20234;-72
2021/09/01 04:13:00;;;;;;;9.90;6.40;;;14.80;99.90;;;;;;5112446;28;20205;-72
2021/09/01 04:15:28;;;;;;;6.70;6.10;;;14.80;99.90;;;;;;5112039;28;20251;-72
2021/09/01 04:17:55;;;;;;;10.33;7.07;;;14.80;99.90;;;;;;5112244;28;20210;-72
2021/09/01 04:20:22;;;;;;;7.40;6.63;;;14.70;99.90;;;;;;5112347;28;20210;-72
2021/09/01 04:22:48;;;;;;;7.63;6.90;;;14.70;99.90;;;;;;5112381;28;20205;-72
2021/09/01 04:25:15;;;;;;;7.43;6.67;;;14.60;99.90;;;;;;5112149;28;20205;-72
2021/09/01 04:27:42;;;;;;;7.40;6.60;;;14.60;99.90;;;;;;5112172;28;20243;-72
2021/09/01 04:30:09;;;;;;;7.27;6.57;;;14.60;99.90;;;;;;5111900;28;20278;-72
2021/09/01 04:32:37;;;;;;;7.13;6.53;;;14.60;99.90;;;;;;5111939;28;20214;-72
2021/09/01 04:35:04;;;;;;;7.63;6.47;;;14.60;99.90;;;;;;5112074;28;20267;-72
2021/09/01 04:37:31;;;;;;;7.43;6.73;;;14.60;99.90;;;;;;5111790;28;20621;-72
2021/09/01 04:39:58;;;;;;;8.57;6.30;;;14.60;99.90;;;;;;5112004;28;20206;-72
2021/09/01 04:42:24;;;;;;;8.10;6.70;;;14.60;99.90;;;;;;5111566;28;20202;-72
2021/09/01 04:44:51;;;;;;;7.17;6.37;;;14.50;99.90;;;;;;5111582;28;20206;-72
2021/09/01 04:47:18;;;;;;;6.80;6.20;;;14.60;99.90;;;;;;5111819;28;20576;-72
2021/09/01 04:49:46;;;;;;;7.33;6.63;;;14.60;99.90;;;;;;5111450;28;20716;-72
2021/09/01 04:52:12;;;;;;;7.10;6.50;;;14.60;99.90;;;;;;5111758;28;20206;-72
2021/09/01 04:54:39;;;;;;;8.40;6.27;;;14.60;99.90;;;;;;5110954;28;20664;-72
2021/09/01 04:57:06;;;;;;;7.20;6.60;;;14.60;99.90;;;;;;5111091;27;20222;-72
2021/09/01 04:59:32;;;;;;;8.80;6.73;;;14.60;99.90;;;;;;5111155;28;20206;-72
2021/09/01 05:01:59;;;;;;;13.53;6.97;;;14.60;99.90;;;;;;5111666;28;20202;-72
2021/09/01 05:04:25;;;;;;;7.13;6.53;;;14.60;99.90;;;;;;5111570;28;20263;-72
2021/09/01 05:06:53;;;;;;;7.33;6.67;;;14.60;99.90;;;;;;5111528;28;20245;-72
2021/09/01 05:09:20;;;;;;;7.83;7.00;;;14.60;99.90;;;;;;5111329;28;20222;-72
2021/09/01 05:11:47;;;;;;;7.27;6.63;;;14.60;99.90;;;;;;5104358;28;20264;-72
2021/09/01 05:14:13;;;;;;;8.50;6.90;;;14.60;99.90;;;;;;5090947;28;20299;-72
2021/09/01 05:16:40;;;;;;;7.63;6.70;;;14.60;99.90;;;;;;5090889;28;20238;-72
2021/09/01 05:19:07;;;;;;;8.57;6.70;;;14.50;99.90;;;;;;5090832;28;20252;-72
2021/09/01 05:21:35;;;;;;;7.70;6.97;;;14.50;99.90;;;;;;5090554;28;20203;-72
2021/09/01 05:24:04;;;;;;;7.80;6.63;;;14.20;99.90;;;;;;5090688;28;20261;-72
2021/09/01 05:26:33;;;;;;;8.20;7.03;;;14.00;99.90;;;;;;5090214;28;20618;-72
2021/09/01 05:29:03;;;;;;;7.87;7.03;;;14.10;99.90;;;;;;5090311;28;20235;-72
2021/09/01 05:31:32;;;;;;;7.50;6.77;;;14.10;99.90;;;;;;5090332;28;20215;-72
2021/09/01 05:34:01;;;;;;;8.40;7.70;;;14.20;99.90;;;;;;5090433;28;20285;-72
2021/09/01 05:36:28;;;;;;;7.37;6.67;;;14.00;99.90;;;;;;5090324;28;20227;-72
2021/09/01 05:38:56;;;;;;;7.03;6.40;;;14.20;99.90;;;;;;5090448;28;20256;-72
2021/09/01 05:41:28;;;;;;;9.30;8.30;;;14.10;99.90;;;;;;5090337;28;20261;-72
2021/09/01 05:43:56;;;;;;;7.43;6.73;;;14.10;99.90;;;;;;5090396;28;20231;-72
2021/09/01 05:46:23;;;;;;;7.67;6.87;;;14.20;99.90;;;;;;5090304;28;20628;-72
2021/09/01 05:48:52;;;;;;;9.57;7.27;;;14.20;99.90;;;;;;5090033;28;20210;-72
2021/09/01 05:51:19;;;;;;;8.00;7.20;;;14.20;99.90;;;;;;5090071;28;20214;-72
2021/09/01 05:53:46;;;;;;;10.30;7.17;;;14.20;99.90;;;;;;5089876;28;20203;-72
2021/09/01 05:56:18;;;;;;;8.37;7.47;;;14.20;99.90;;;;;;5090243;28;20206;-72
2021/09/01 05:58:52;;;;;;;7.87;6.80;;;14.20;99.90;;;;;;5089813;28;20233;-72
2021/09/01 06:01:26;;;;;;;8.13;7.07;;;14.40;99.90;;;;;;5089633;28;20229;-72
2021/09/01 06:03:57;;;;;;;7.87;6.57;;;14.40;99.90;;;;;;5089670;28;20720;-72
2021/09/01 06:06:25;;;;;;;8.80;7.00;;;14.20;99.90;;;;;;5089963;28;20267;-72
2021/09/01 06:08:52;;;;;;;7.67;7.03;;;14.20;99.90;;;;;;5088990;28;20278;-72
2021/09/01 06:11:23;;;;;;;9.80;6.50;;;14.20;99.90;;;;;;5089544;28;20661;-72
2021/09/01 06:13:51;;;;;;;8.90;6.73;;;14.10;99.90;;;;;;5089267;28;20715;-72
2021/09/01 06:16:18;;;;;;;8.20;6.83;;;14.20;99.90;;;;;;5089271;28;20705;-72
2021/09/01 06:18:44;;;;;;;8.30;7.47;;;14.20;99.90;;;;;;5089652;28;20259;-72
2021/09/01 06:21:11;;;;;;;8.07;7.30;;;14.20;99.90;;;;;;5089597;28;20210;-72
2021/09/01 06:23:38;;;;;;;8.47;7.67;;;14.20;99.90;;;;;;5089747;28;20217;-72
2021/09/01 06:26:04;;;;;;;8.27;7.43;;;14.10;99.90;;;;;;5089533;28;20226;-72
2021/09/01 06:28:31;;;;;;;7.70;6.90;;;14.20;99.90;;;;;;5088866;28;20673;-72
2021/09/01 06:30:59;;;;;;;7.57;6.87;;;14.20;99.90;;;;;;5089211;28;20262;-72
2021/09/01 06:33:25;;;;;;;8.80;7.00;;;14.30;99.90;;;;;;5089277;28;20206;-72
2021/09/01 06:35:52;;;;;;;8.60;7.00;;;14.40;99.90;;;;;;5089279;28;20280;-72
2021/09/01 06:38:19;;;;;;;12.10;7.40;;;14.40;99.90;;;;;;5089405;28;20612;-72
2021/09/01 06:40:45;;;;;;;7.80;7.03;;;14.50;99.90;;;;;;5088952;28;20210;-72
2021/09/01 06:43:12;;;;;;;7.83;7.03;;;14.60;99.90;;;;;;5089253;28;20203;-72
2021/09/01 06:45:40;;;;;;;9.27;7.30;;;14.70;99.90;;;;;;5089041;28;20211;-72
2021/09/01 06:48:10;;;;;;;7.50;6.80;;;14.70;99.90;;;;;;5088915;28;20202;-72
2021/09/01 06:50:37;;;;;;;7.87;7.17;;;14.80;99.90;;;;;;5088932;28;20223;-72
2021/09/01 06:53:03;;;;;;;8.80;6.97;;;14.90;99.90;;;;;;5089161;28;20264;-72
2021/09/01 06:55:30;;;;;;;10.90;9.77;;;14.90;99.90;;;;;;5088611;28;20708;-72
2021/09/01 06:57:57;;;;;;;9.30;7.23;;;15.00;99.90;;;;;;5088922;28;20223;-72
2021/09/01 07:00:24;;;;;;;8.30;7.50;;;15.00;99.90;;;;;;5088734;28;20567;-72
2021/09/01 07:02:50;;;;;;;9.07;7.83;;;15.10;99.90;;;;;;5088883;28;20211;-72
2021/09/01 07:05:19;;;;;;;8.77;7.43;;;15.20;99.90;;;;;;5088848;28;20616;-72
2021/09/01 07:07:48;;;;;;;8.20;7.40;;;15.30;99.90;;;;;;5088819;28;20241;-72
2021/09/01 07:10:15;;;;;;;8.53;7.10;;;15.30;99.90;;;;;;5088784;28;20226;-72
2021/09/01 07:12:42;;;;;;;7.90;6.87;;;15.40;99.90;;;;;;5088700;28;20202;-72
2021/09/01 07:15:09;;;;;;;10.07;7.57;;;15.40;99.90;;;;;;5088604;28;20206;-72
2021/09/01 07:17:36;;;;;;;7.47;6.70;;;15.50;99.90;;;;;;5088622;28;20213;-72
2021/09/01 07:20:04;;;;;;;7.50;6.60;;;15.60;99.90;;;;;;5088618;28;20206;-72
2021/09/01 07:22:32;;;;;;;8.00;7.30;;;15.60;99.90;;;;;;5088736;28;20210;-72
2021/09/01 07:24:59;;;;;;;9.43;6.87;;;15.70;99.90;;;;;;5088026;28;20730;-72
2021/09/01 07:27:26;;;;;;;7.73;6.93;;;15.80;99.90;;;;;;5088138;28;20721;-72
2021/09/01 07:29:52;;;;;;;11.77;8.60;;;15.90;99.90;;;;;;5088172;28;20266;-72
2021/09/01 07:32:19;;;;;;;9.83;6.97;;;16.00;99.90;;;;;;5088455;28;20231;-72
2021/09/01 07:34:46;;;;;;;8.03;7.10;;;16.10;99.90;;;;;;5088212;28;20284;-72
2021/09/01 07:37:13;;;;;;;9.40;7.10;;;16.20;99.90;;;;;;5088315;28;20657;-72
2021/09/01 07:39:41;;;;;;;8.33;6.77;;;16.20;99.90;;;;;;5088146;28;20206;-72
2021/09/01 07:42:07;;;;;;;7.77;7.03;;;16.30;99.90;;;;;;5088529;28;20617;-72
2021/09/01 07:44:34;;;;;;;7.97;7.17;;;16.40;99.90;;;;;;5087991;28;20206;-72
2021/09/01 07:47:01;;;;;;;9.17;7.17;;;16.40;99.90;;;;;;5088594;28;20256;-72
2021/09/01 07:49:28;;;;;;;9.83;7.13;;;16.50;99.90;;;;;;5088239;28;20617;-72
2021/09/01 07:51:55;;;;;;;7.30;6.60;;;16.50;99.90;;;;;;5088428;28;20205;-72
2021/09/01 07:54:22;;;;;;;8.20;7.40;;;16.60;99.90;;;;;;5088118;28;20231;-73
2021/09/01 07:56:50;;;;;;;9.90;8.50;;;16.60;99.90;;;;;;5088103;28;20227;-72
2021/09/01 07:59:16;;;;;;;10.60;8.57;;;16.70;99.90;;;;;;5087757;28;20734;-71
2021/09/01 08:01:43;;;;;;;8.77;7.97;;;16.70;99.90;;;;;;5087921;28;20210;-73
2021/09/01 08:04:10;;;;;;;8.53;7.73;;;16.70;99.90;;;;;;5088449;28;20199;-72
2021/09/01 08:06:36;;;;;;;8.50;7.80;;;16.70;99.90;;;;;;5087920;28;20263;-72
2021/09/01 08:09:03;;;;;;;11.20;7.93;;;16.70;99.90;;;;;;5088109;28;20239;-72
2021/09/01 08:11:30;;;;;;;10.47;8.40;;;16.80;99.90;;;;;;5087962;28;20291;-72
2021/09/01 08:13:58;;;;;;;11.07;8.83;;;16.90;99.90;;;;;;5088066;28;20207;-73
2021/09/01 08:16:26;;;;;;;11.70;8.93;;;16.80;99.90;;;;;;5088123;28;20260;-72
2021/09/01 08:18:53;;;;;;;11.50;8.90;;;16.60;99.90;;;;;;5088167;28;20746;-72
2021/09/01 08:21:19;;;;;;;12.40;8.80;;;16.60;99.90;;;;;;5088057;28;20199;-72
2021/09/01 08:23:46;;;;;;;12.77;9.80;;;16.60;99.90;;;;;;5087949;28;20263;-72
2021/09/01 08:26:16;;;;;;;9.20;8.30;;;16.40;99.90;;;;;;5088155;28;20256;-72
2021/09/01 08:28:43;;;;;;;9.47;8.57;;;16.50;99.90;;;;;;5087368;28;20616;-72
2021/09/01 08:31:12;;;;;;;9.07;8.27;;;16.60;99.90;;;;;;5089890;28;20270;-71
2021/09/01 08:33:38;;;;;;;8.80;7.90;;;16.70;99.90;;;;;;5091656;28;20202;-71
2021/09/01 08:36:05;;;;;;;8.73;7.87;;;16.80;99.90;;;;;;5091669;28;20222;-71
2021/09/01 08:38:32;;;;;;;9.13;8.07;;;16.80;99.90;;;;;;5091636;28;20291;-71
2021/09/01 08:40:59;;;;;;;9.63;8.00;;;17.00;99.90;;;;;;5091530;28;20207;-71
2021/09/01 08:43:26;;;;;;;9.00;8.07;;;17.00;99.90;;;;;;5091456;28;20207;-72
2021/09/01 08:45:52;;;;;;;9.70;7.70;;;17.10;99.90;;;;;;5091533;28;21014;-71
2021/09/01 08:48:22;;;;;;;9.17;8.23;;;17.10;99.90;;;;;;5091375;28;20240;-72
2021/09/01 08:50:49;;;;;;;9.20;8.30;;;17.20;99.90;;;;;;5091113;28;20226;-71
2021/09/01 08:53:15;;;;;;;10.63;7.47;;;17.10;99.90;;;;;;5091029;28;20681;-72
2021/09/01 08:55:42;;;;;;;8.07;7.33;;;17.10;99.90;;;;;;5090886;28;20325;-71
2021/09/01 08:58:09;;;;;;;9.33;8.13;;;17.10;99.90;;;;;;5091231;28;20219;-71
2021/09/01 09:00:35;;;;;;;9.13;8.23;;;17.10;99.90;;;;;;5090812;28;20230;-72
2021/09/01 09:03:02;;;;;;;8.30;7.60;;;17.10;99.90;;;;;;5091351;28;20263;-72
2021/09/01 09:05:36;;;;;;;13.40;9.67;;;17.00;99.90;;;;;;5091324;28;20238;-72
2021/09/01 09:08:03;;;;;;;10.40;8.57;;;16.80;99.90;;;;;;5091098;28;20278;-72
2021/09/01 09:10:33;;;;;;;9.13;8.23;;;16.80;99.90;;;;;;5091056;28;20231;-72
2021/09/01 09:13:02;;;;;;;9.27;8.47;;;16.80;99.90;;;;;;5090962;28;20218;-72
2021/09/01 09:15:29;;;;;;;8.30;7.60;;;16.90;99.90;;;;;;5090876;28;20198;-72
2021/09/01 09:17:55;;;;;;;12.57;8.83;;;16.90;99.90;;;;;;5090871;28;20210;-72
2021/09/01 09:20:28;;;;;;;10.13;9.33;;;16.80;99.90;;;;;;5090830;28;20268;-72
2021/09/01 09:22:56;;;;;;;10.60;9.57;;;16.70;99.90;;;;;;5090513;28;20206;-72
2021/09/01 09:25:28;;;;;;;12.53;9.17;;;16.70;99.90;;;;;;5090432;28;20661;-72
2021/09/01 09:27:57;;;;;;;9.80;8.97;;;16.60;99.90;;;;;;5090397;28;20770;-72
2021/09/01 09:30:32;;;;;;;9.87;8.97;;;16.30;99.90;;;;;;5090428;28;20230;-72
2021/09/01 09:33:00;;;;;;;11.83;10.73;;;16.30;99.90;;;;;;5090686;28;20217;-72
2021/09/01 09:35:29;;;;;;;11.13;9.90;;;16.30;99.90;;;;;;5090588;28;20226;-72
2021/09/01 09:38:06;;;;;;;10.53;9.53;;;16.30;99.90;;;;;;5090440;28;20206;-72
2021/09/01 09:40:35;;;;;;;11.23;10.17;;;16.30;99.90;;;;;;5090369;28;20199;-72
2021/09/01 09:43:18;;;;;;;11.77;10.57;;;16.30;99.90;;;;;;5089132;28;20205;-72
2021/09/01 09:45:46;;;;;;;12.07;10.87;;;16.20;99.90;;;;;;5089880;28;20209;-72
2021/09/01 09:48:14;;;;;;;10.57;9.57;;;16.30;99.90;;;;;;5090369;28;20260;-72
2021/09/01 09:50:47;;;;;;;11.37;10.27;;;16.30;99.90;;;;;;5089709;28;20732;-72
2021/09/01 09:53:30;;;;;;;11.47;10.27;;;16.30;99.90;;;;;;5089705;28;20199;-71
2021/09/01 09:56:11;;;;;;;10.20;9.20;;;16.40;99.90;;;;;;5089779;28;20198;-72
2021/09/01 09:58:40;;;;;;;10.10;9.13;;;16.50;99.90;;;;;;5089842;28;20248;-72
2021/09/01 10:01:09;;;;;;;10.30;9.17;;;16.60;99.90;;;;;;5089561;28;21081;-72
2021/09/01 10:03:37;;;;;;;11.27;9.30;;;16.70;99.90;;;;;;5090000;28;20560;-72
2021/09/01 10:06:05;;;;;;;10.53;9.53;;;16.60;99.90;;;;;;5089839;28;20198;-72
2021/09/01 10:08:35;;;;;;;11.37;9.70;;;16.60;99.90;;;;;;5089666;28;20214;-72
2021/09/01 10:11:04;;;;;;;11.17;9.60;;;16.50;99.90;;;;;;5089607;28;20446;-72
2021/09/01 10:13:31;;;;;;;9.90;8.87;;;16.60;99.90;;;;;;5089497;28;20210;-72
2021/09/01 10:16:09;;;;;;;9.60;8.80;;;16.50;99.90;;;;;;5089728;28;20213;-72
2021/09/01 10:18:43;;;;;;;12.00;9.43;;;16.50;99.90;;;;;;5089883;28;20195;-71
2021/09/01 10:21:11;;;;;;;10.70;9.10;;;16.60;99.90;;;;;;5089698;28;20950;-72
2021/09/01 10:23:41;;;;;;;10.77;9.53;;;16.60;99.90;;;;;;5090188;28;20260;-72
2021/09/01 10:26:22;;;;;;;9.83;8.20;;;16.60;99.90;;;;;;5090122;28;20349;-72
2021/09/01 10:28:49;;;;;;;11.03;9.53;;;16.60;99.90;;;;;;5089396;28;20256;-72
2021/09/01 10:31:30;;;;;;;10.47;9.37;;;16.60;99.90;;;;;;5089540;28;20238;-72
2021/09/01 10:34:01;;;;;;;10.50;9.20;;;16.70;99.90;;;;;;5089447;28;20190;-72
2021/09/01 10:36:52;;;;;;;9.97;8.97;;;16.70;99.90;;;;;;5089383;28;20195;-72
2021/09/01 10:39:47;;;;;;;10.57;8.40;;;16.50;99.90;;;;;;5074030;28;20214;-72
2021/09/01 10:42:47;;;;;;;12.20;9.50;;;16.60;99.90;;;;;;5089515;28;20195;-72
2021/09/01 10:45:16;;;;;;;10.13;9.13;;;16.60;99.90;;;;;;5088730;28;20256;-73
2021/09/01 10:48:15;;;;;;;9.27;7.83;;;16.60;99.90;;;;;;5089042;28;20217;-72
2021/09/01 10:50:44;;;;;;;9.33;8.33;;;16.60;99.90;;;;;;5089236;28;20270;-72
2021/09/01 10:53:19;;;;;;;8.73;8.00;;;16.60;99.90;;;;;;5088542;28;20211;-72
2021/09/01 10:55:53;;;;;;;9.67;8.67;;;16.80;99.90;;;;;;5088669;28;20292;-72
2021/09/01 10:58:32;;;;;;;9.73;8.53;;;16.80;99.90;;;;;;5089160;28;20202;-72
2021/09/01 11:01:05;;;;;;;9.80;8.03;;;16.90;99.90;;;;;;5088720;28;20230;-72
2021/09/01 11:03:35;;;;;;;9.20;8.40;;;16.90;99.90;;;;;;5089037;28;20194;-72
2021/09/01 11:06:20;;;;;;;8.73;8.03;;;17.00;99.90;;;;;;5088579;28;20214;-72
2021/09/01 11:09:07;;;;;;;8.17;7.47;;;17.00;99.90;;;;;;5088582;28;20240;-72
2021/09/01 11:11:45;;;;;;;8.23;7.43;;;17.00;99.90;;;;;;5088622;28;20313;-72
2021/09/01 11:14:15;;;;;;;9.07;7.60;;;17.00;99.90;;;;;;5088618;28;20199;-72
2021/09/01 11:16:41;;;;;;;11.27;7.53;;;17.10;99.90;;;;;;5089363;28;20202;-72
2021/09/01 11:19:09;;;;;;;9.50;7.67;;;17.10;99.90;;;;;;5088613;28;20206;-72
2021/09/01 11:21:44;;;;;;;8.07;7.47;;;17.10;99.90;;;;;;5088384;28;20684;-72
2021/09/01 11:24:13;;;;;;;7.70;7.10;;;17.10;99.90;;;;;;5087990;28;20714;-72
2021/09/01 11:26:42;;;;;;;8.43;7.50;;;17.20;99.90;;;;;;5088530;28;20214;-73
2021/09/01 11:29:11;;;;;;;8.73;7.93;;;17.30;99.90;;;;;;5088332;28;20245;-73
2021/09/01 11:31:44;;;;;;;7.70;7.00;;;17.30;99.90;;;;;;5088182;28;20315;-73
2021/09/01 11:34:12;;;;;;;7.80;7.10;;;17.40;99.90;;;;;;5088538;28;20222;-72
2021/09/01 11:36:40;;;;;;;7.63;7.03;;;17.50;99.90;;;;;;5088096;28;20745;-72
2021/09/01 11:39:06;;;;;;;7.53;6.90;;;17.40;99.90;;;;;;5088169;28;20206;-72
2021/09/01 11:41:33;;;;;;;7.30;6.70;;;17.40;99.90;;;;;;5088515;28;20415;-72
2021/09/01 11:44:03;;;;;;;8.07;7.13;;;17.40;99.90;;;;;;5088353;28;20244;-72
2021/09/01 11:46:34;;;;;;;7.60;7.00;;;17.40;99.90;;;;;;5088673;28;20260;-72
2021/09/01 11:49:06;;;;;;;7.57;6.83;;;17.50;99.90;;;;;;5088503;28;20277;-72
2021/09/01 11:51:33;;;;;;;7.17;6.60;;;17.60;99.90;;;;;;5088437;28;20601;-73
2021/09/01 11:54:00;;;;;;;8.20;7.50;;;17.70;99.90;;;;;;5088021;28;20239;-72
2021/09/01 11:56:27;;;;;;;7.70;6.77;;;17.70;99.90;;;;;;5088195;28;20219;-73
2021/09/01 11:59:04;;;;;;;7.87;6.93;;;17.70;99.90;;;;;;5088063;28;20700;-72
2021/09/01 12:01:32;;;;;;;7.80;7.10;;;17.80;99.90;;;;;;5088300;28;20195;-72
2021/09/01 12:03:59;;;;;;;7.03;6.43;;;17.80;99.90;;;;;;5087698;28;20752;-72
2021/09/01 12:06:40;;;;;;;7.13;6.27;;;17.80;99.90;;;;;;5090828;28;20211;-72
2021/09/01 12:09:12;;;;;;;7.37;6.73;;;18.00;99.90;;;;;;5092146;28;20502;-72
2021/09/01 12:11:38;;;;;;;6.07;5.43;;;18.00;99.90;;;;;;5092363;28;20655;-72
2021/09/01 12:14:09;;;;;;;7.03;6.43;;;18.00;99.90;;;;;;5091927;28;20203;-72
2021/09/01 12:16:36;;;;;;;6.40;5.90;;;18.10;99.90;;;;;;5092468;28;20203;-72
2021/09/01 12:19:10;;;;;;;6.70;6.13;;;18.10;99.90;;;;;;5091849;28;20210;-72
2021/09/01 12:21:52;;;;;;;6.57;6.07;;;18.20;99.90;;;;;;5091798;28;20282;-72
2021/09/01 12:24:23;;;;;;;6.73;6.10;;;18.40;99.90;;;;;;5091431;28;20661;-73
2021/09/01 12:26:53;;;;;;;6.70;6.07;;;18.50;99.90;;;;;;5091581;28;20241;-72
2021/09/01 12:29:30;;;;;;;6.87;6.27;;;18.70;99.90;;;;;;5091356;28;20210;-73
2021/09/01 12:31:58;;;;;;;6.37;5.83;;;18.80;99.90;;;;;;5091046;28;20616;-73
2021/09/01 12:34:30;;;;;;;6.00;5.40;;;18.70;99.90;;;;;;5091634;28;20226;-72
2021/09/01 12:37:01;;;;;;;6.97;6.03;;;18.70;99.90;;;;;;5091514;28;20199;-73
2021/09/01 12:39:27;;;;;;;6.73;5.60;;;18.80;99.90;;;;;;5091539;28;20211;-72
2021/09/01 12:41:54;;;;;;;6.27;5.77;;;18.80;99.90;;;;;;5091264;28;20218;-73
2021/09/01 12:44:21;;;;;;;6.63;6.03;;;18.90;99.90;;;;;;5090823;28;20727;-73
2021/09/01 12:46:49;;;;;;;6.37;5.77;;;18.80;99.90;;;;;;5091327;28;20611;-73
2021/09/01 12:49:23;;;;;;;6.27;5.70;;;18.90;99.90;;;;;;5091407;28;21093;-73
2021/09/01 12:51:50;;;;;;;6.80;6.20;;;19.00;99.90;;;;;;5090953;28;20227;-72
2021/09/01 12:54:20;;;;;;;6.37;5.77;;;19.20;99.90;;;;;;5090803;28;20246;-73